sensor_id;sensor_type;location;lat;lon;timestamp;pressure;altitude;pressure_sealevel;temperature;humidity
23635;BME280;11994;51.038;16.974;2023-06-01T00:01:37;100339.74;;;14.78;62.88
23635;BME280;11994;51.038;16.974;2023-06-01T00:04:04;100335.74;;;14.72;63.18
23635;BME280;11994;51.038;16.974;2023-06-01T00:06:30;100333.97;;;14.68;63.44
23635;BME280;11994;51.038;16.974;2023-06-01T00:08:57;100336.41;;;14.64;63.55
23635;BME280;11994;51.038;16.974;2023-06-01T00:11:23;100337.14;;;14.59;63.74
23635;BME280;11994;51.038;16.974;2023-06-01T00:13:50;100336.58;;;14.56;63.82
23635;BME280;11994;51.038;16.974;2023-06-01T00:16:16;100337.02;;;14.53;63.81
23635;BME280;11994;51.038;16.974;2023-06-01T00:18:43;100335.17;;;14.51;63.95
23635;BME280;11994;51.038;16.974;2023-06-01T00:21:08;100334.11;;;14.46;63.98
23635;BME280;11994;51.038;16.974;2023-06-01T00:23:34;100331.80;;;14.42;64.01
23635;BME280;11994;51.038;16.974;2023-06-01T00:26:00;100331.60;;;14.38;64.06
23635;BME280;11994;51.038;16.974;2023-06-01T00:28:26;100325.79;;;14.33;64.24
23635;BME280;11994;51.038;16.974;2023-06-01T00:30:52;100325.55;;;14.30;64.20
23635;BME280;11994;51.038;16.974;2023-06-01T00:33:19;100319.88;;;14.27;64.30
23635;BME280;11994;51.038;16.974;2023-06-01T00:35:44;100323.95;;;14.21;64.28
23635;BME280;11994;51.038;16.974;2023-06-01T00:38:09;100321.44;;;14.12;64.38
23635;BME280;11994;51.038;16.974;2023-06-01T00:40:35;100325.20;;;14.05;64.49
23635;BME280;11994;51.038;16.974;2023-06-01T00:43:00;100324.14;;;14.01;64.68
23635;BME280;11994;51.038;16.974;2023-06-01T00:45:26;100322.06;;;13.95;64.74
23635;BME280;11994;51.038;16.974;2023-06-01T00:47:52;100319.09;;;13.89;64.78
23635;BME280;11994;51.038;16.974;2023-06-01T00:50:18;100318.80;;;13.83;64.73
23635;BME280;11994;51.038;16.974;2023-06-01T00:52:44;100319.24;;;13.76;64.83
23635;BME280;11994;51.038;16.974;2023-06-01T00:55:10;100316.27;;;13.65;64.94
23635;BME280;11994;51.038;16.974;2023-06-01T00:57:38;100317.05;;;13.57;65.20
23635;BME280;11994;51.038;16.974;2023-06-01T01:00:04;100316.39;;;13.56;65.40
23635;BME280;11994;51.038;16.974;2023-06-01T01:02:38;100315.98;;;13.58;65.62
23635;BME280;11994;51.038;16.974;2023-06-01T01:05:08;100317.09;;;13.61;65.72
23635;BME280;11994;51.038;16.974;2023-06-01T01:13:22;100308.55;;;13.69;65.93
23635;BME280;11994;51.038;16.974;2023-06-01T01:15:58;100307.48;;;13.65;65.71
23635;BME280;11994;51.038;16.974;2023-06-01T01:21:32;100308.45;;;13.57;65.71
23635;BME280;11994;51.038;16.974;2023-06-01T01:27:04;100303.79;;;13.50;65.76
23635;BME280;11994;51.038;16.974;2023-06-01T01:29:33;100306.46;;;13.54;66.13
23635;BME280;11994;51.038;16.974;2023-06-01T01:32:00;100306.10;;;13.59;66.17
23635;BME280;11994;51.038;16.974;2023-06-01T01:34:27;100308.17;;;13.60;66.16
23635;BME280;11994;51.038;16.974;2023-06-01T01:36:54;100306.18;;;13.62;66.08
23635;BME280;11994;51.038;16.974;2023-06-01T01:39:20;100303.05;;;13.61;66.00
23635;BME280;11994;51.038;16.974;2023-06-01T01:41:45;100304.84;;;13.60;66.29
23635;BME280;11994;51.038;16.974;2023-06-01T01:44:11;100304.54;;;13.63;66.28
23635;BME280;11994;51.038;16.974;2023-06-01T01:49:30;100304.80;;;13.66;65.91
23635;BME280;11994;51.038;16.974;2023-06-01T01:54:37;100297.64;;;13.60;65.82
23635;BME280;11994;51.038;16.974;2023-06-01T01:57:03;100293.39;;;13.55;65.95
23635;BME280;11994;51.038;16.974;2023-06-01T01:59:30;100288.53;;;13.54;66.04
23635;BME280;11994;51.038;16.974;2023-06-01T02:01:56;100286.50;;;13.56;66.11
23635;BME280;11994;51.038;16.974;2023-06-01T02:04:22;100280.94;;;13.55;66.10
23635;BME280;11994;51.038;16.974;2023-06-01T02:06:47;100277.52;;;13.52;66.02
23635;BME280;11994;51.038;16.974;2023-06-01T02:09:13;100273.59;;;13.49;66.01
23635;BME280;11994;51.038;16.974;2023-06-01T02:11:38;100274.98;;;13.44;66.01
23635;BME280;11994;51.038;16.974;2023-06-01T02:14:04;100274.56;;;13.41;65.86
23635;BME280;11994;51.038;16.974;2023-06-01T02:16:29;100277.73;;;13.35;65.82
23635;BME280;11994;51.038;16.974;2023-06-01T02:18:55;100277.70;;;13.32;65.90
23635;BME280;11994;51.038;16.974;2023-06-01T02:21:23;100278.08;;;13.30;65.93
23635;BME280;11994;51.038;16.974;2023-06-01T02:23:48;100279.11;;;13.21;65.95
23635;BME280;11994;51.038;16.974;2023-06-01T02:26:13;100278.46;;;13.14;66.05
23635;BME280;11994;51.038;16.974;2023-06-01T02:28:39;100274.39;;;13.10;66.16
23635;BME280;11994;51.038;16.974;2023-06-01T02:31:06;100271.48;;;13.07;66.39
23635;BME280;11994;51.038;16.974;2023-06-01T02:33:32;100269.54;;;13.02;66.35
23635;BME280;11994;51.038;16.974;2023-06-01T02:35:58;100272.16;;;12.97;66.49
23635;BME280;11994;51.038;16.974;2023-06-01T02:38:23;100269.52;;;12.97;66.70
23635;BME280;11994;51.038;16.974;2023-06-01T02:40:49;100268.88;;;13.01;66.75
23635;BME280;11994;51.038;16.974;2023-06-01T02:43:14;100268.42;;;13.04;66.78
23635;BME280;11994;51.038;16.974;2023-06-01T02:45:40;100270.06;;;13.07;66.70
23635;BME280;11994;51.038;16.974;2023-06-01T02:48:05;100263.89;;;13.03;66.77
23635;BME280;11994;51.038;16.974;2023-06-01T02:50:31;100260.85;;;12.99;66.72
23635;BME280;11994;51.038;16.974;2023-06-01T02:52:56;100264.67;;;12.95;66.75
23635;BME280;11994;51.038;16.974;2023-06-01T02:55:22;100265.35;;;12.96;67.01
23635;BME280;11994;51.038;16.974;2023-06-01T02:57:47;100261.52;;;12.95;67.06
23635;BME280;11994;51.038;16.974;2023-06-01T03:00:13;100259.95;;;12.94;67.23
23635;BME280;11994;51.038;16.974;2023-06-01T03:02:43;100262.39;;;12.95;67.22
23635;BME280;11994;51.038;16.974;2023-06-01T03:05:09;100257.89;;;12.92;67.13
23635;BME280;11994;51.038;16.974;2023-06-01T03:07:34;100257.11;;;12.89;67.29
23635;BME280;11994;51.038;16.974;2023-06-01T03:10:00;100254.13;;;12.84;67.22
23635;BME280;11994;51.038;16.974;2023-06-01T03:12:25;100259.63;;;12.76;67.45
23635;BME280;11994;51.038;16.974;2023-06-01T03:14:51;100259.95;;;12.72;67.57
23635;BME280;11994;51.038;16.974;2023-06-01T03:17:16;100259.91;;;12.68;67.64
23635;BME280;11994;51.038;16.974;2023-06-01T03:19:41;100258.63;;;12.64;67.84
23635;BME280;11994;51.038;16.974;2023-06-01T03:22:07;100258.14;;;12.63;67.85
23635;BME280;11994;51.038;16.974;2023-06-01T03:24:33;100258.40;;;12.66;68.01
23635;BME280;11994;51.038;16.974;2023-06-01T03:26:59;100258.52;;;12.67;68.14
23635;BME280;11994;51.038;16.974;2023-06-01T03:29:26;100259.10;;;12.71;68.57
23635;BME280;11994;51.038;16.974;2023-06-01T03:31:51;100261.00;;;12.78;68.58
23635;BME280;11994;51.038;16.974;2023-06-01T03:34:17;100263.42;;;12.79;68.48
23635;BME280;11994;51.038;16.974;2023-06-01T03:36:42;100263.27;;;12.78;68.49
23635;BME280;11994;51.038;16.974;2023-06-01T03:39:14;100262.67;;;12.80;68.56
23635;BME280;11994;51.038;16.974;2023-06-01T03:41:41;100260.52;;;12.81;68.58
23635;BME280;11994;51.038;16.974;2023-06-01T03:44:07;100262.16;;;12.80;68.64
23635;BME280;11994;51.038;16.974;2023-06-01T03:46:33;100259.21;;;12.79;68.74
23635;BME280;11994;51.038;16.974;2023-06-01T03:48:58;100259.47;;;12.82;68.83
23635;BME280;11994;51.038;16.974;2023-06-01T03:51:23;100256.23;;;12.84;68.92
23635;BME280;11994;51.038;16.974;2023-06-01T03:53:49;100257.90;;;12.87;69.09
23635;BME280;11994;51.038;16.974;2023-06-01T03:56:14;100252.18;;;12.90;69.03
23635;BME280;11994;51.038;16.974;2023-06-01T03:58:40;100256.11;;;12.94;69.10
23635;BME280;11994;51.038;16.974;2023-06-01T04:01:06;100255.02;;;12.94;69.00
23635;BME280;11994;51.038;16.974;2023-06-01T04:03:31;100254.48;;;12.96;69.08
23635;BME280;11994;51.038;16.974;2023-06-01T04:05:57;100249.01;;;13.02;69.33
23635;BME280;11994;51.038;16.974;2023-06-01T04:08:27;100253.54;;;13.08;69.37
23635;BME280;11994;51.038;16.974;2023-06-01T04:10:54;100250.19;;;13.14;69.41
23635;BME280;11994;51.038;16.974;2023-06-01T04:13:20;100248.31;;;13.22;69.52
23635;BME280;11994;51.038;16.974;2023-06-01T04:15:46;100247.99;;;13.32;69.72
23635;BME280;11994;51.038;16.974;2023-06-01T04:18:12;100246.77;;;13.42;69.74
23635;BME280;11994;51.038;16.974;2023-06-01T04:20:37;100243.80;;;13.51;69.65
23635;BME280;11994;51.038;16.974;2023-06-01T04:23:03;100242.63;;;13.65;69.64
23635;BME280;11994;51.038;16.974;2023-06-01T04:25:28;100242.95;;;13.75;69.55
23635;BME280;11994;51.038;16.974;2023-06-01T04:27:55;100239.92;;;13.81;69.56
23635;BME280;11994;51.038;16.974;2023-06-01T04:30:21;100236.90;;;13.87;69.44
23635;BME280;11994;51.038;16.974;2023-06-01T04:32:48;100238.20;;;13.89;69.39
23635;BME280;11994;51.038;16.974;2023-06-01T04:35:14;100237.70;;;13.93;69.38
23635;BME280;11994;51.038;16.974;2023-06-01T04:37:40;100233.89;;;14.01;69.53
23635;BME280;11994;51.038;16.974;2023-06-01T04:40:08;100233.20;;;14.10;69.61
23635;BME280;11994;51.038;16.974;2023-06-01T04:42:41;100231.20;;;14.17;69.54
23635;BME280;11994;51.038;16.974;2023-06-01T04:45:09;100229.23;;;14.23;69.46
23635;BME280;11994;51.038;16.974;2023-06-01T04:47:35;100225.80;;;14.30;69.32
23635;BME280;11994;51.038;16.974;2023-06-01T04:50:08;100223.77;;;14.37;69.27
23635;BME280;11994;51.038;16.974;2023-06-01T04:52:36;100222.60;;;14.44;69.21
23635;BME280;11994;51.038;16.974;2023-06-01T04:55:02;100219.45;;;14.52;69.28
23635;BME280;11994;51.038;16.974;2023-06-01T04:57:30;100215.09;;;14.60;69.22
23635;BME280;11994;51.038;16.974;2023-06-01T04:59:55;100214.79;;;14.68;69.28
23635;BME280;11994;51.038;16.974;2023-06-01T05:02:23;100216.77;;;14.75;69.36
23635;BME280;11994;51.038;16.974;2023-06-01T05:04:49;100218.73;;;14.83;69.29
23635;BME280;11994;51.038;16.974;2023-06-01T05:07:14;100218.04;;;14.92;69.39
23635;BME280;11994;51.038;16.974;2023-06-01T05:09:40;100216.26;;;15.00;69.36
23635;BME280;11994;51.038;16.974;2023-06-01T05:12:05;100216.77;;;15.10;69.27
23635;BME280;11994;51.038;16.974;2023-06-01T05:14:31;100212.00;;;15.18;69.33
23635;BME280;11994;51.038;16.974;2023-06-01T05:16:57;100211.95;;;15.23;69.20
23635;BME280;11994;51.038;16.974;2023-06-01T05:19:22;100214.78;;;15.27;69.19
23635;BME280;11994;51.038;16.974;2023-06-01T05:21:47;100212.38;;;15.29;69.21
23635;BME280;11994;51.038;16.974;2023-06-01T05:24:13;100212.17;;;15.35;69.20
23635;BME280;11994;51.038;16.974;2023-06-01T05:26:38;100211.86;;;15.42;68.99
23635;BME280;11994;51.038;16.974;2023-06-01T05:29:03;100209.44;;;15.49;69.06
23635;BME280;11994;51.038;16.974;2023-06-01T05:31:29;100211.20;;;15.57;68.51
23635;BME280;11994;51.038;16.974;2023-06-01T05:33:54;100205.33;;;15.66;67.70
23635;BME280;11994;51.038;16.974;2023-06-01T05:36:20;100204.80;;;15.78;67.51
23635;BME280;11994;51.038;16.974;2023-06-01T05:38:46;100203.27;;;15.89;67.23
23635;BME280;11994;51.038;16.974;2023-06-01T05:41:11;100201.42;;;16.01;67.11
23635;BME280;11994;51.038;16.974;2023-06-01T05:43:37;100198.54;;;16.14;66.67
23635;BME280;11994;51.038;16.974;2023-06-01T05:46:02;100197.52;;;16.28;66.34
23635;BME280;11994;51.038;16.974;2023-06-01T05:48:28;100193.54;;;16.45;66.11
23635;BME280;11994;51.038;16.974;2023-06-01T05:50:53;100196.09;;;16.66;65.42
23635;BME280;11994;51.038;16.974;2023-06-01T05:53:19;100193.55;;;16.85;65.10
23635;BME280;11994;51.038;16.974;2023-06-01T05:55:44;100190.73;;;17.02;64.63
23635;BME280;11994;51.038;16.974;2023-06-01T05:58:09;100190.81;;;17.21;64.31
23635;BME280;11994;51.038;16.974;2023-06-01T06:00:35;100192.48;;;17.41;63.58
23635;BME280;11994;51.038;16.974;2023-06-01T06:03:00;100189.73;;;17.60;62.95
23635;BME280;11994;51.038;16.974;2023-06-01T06:05:26;100187.30;;;17.79;62.20
23635;BME280;11994;51.038;16.974;2023-06-01T06:07:51;100188.16;;;17.98;61.27
23635;BME280;11994;51.038;16.974;2023-06-01T06:10:17;100187.55;;;18.19;60.62
23635;BME280;11994;51.038;16.974;2023-06-01T06:12:42;100186.00;;;18.38;59.99
23635;BME280;11994;51.038;16.974;2023-06-01T06:15:08;100183.98;;;18.55;59.27
23635;BME280;11994;51.038;16.974;2023-06-01T06:17:33;100184.23;;;18.72;58.76
23635;BME280;11994;51.038;16.974;2023-06-01T06:19:59;100191.05;;;18.89;59.01
23635;BME280;11994;51.038;16.974;2023-06-01T06:22:25;100191.35;;;19.08;59.10
23635;BME280;11994;51.038;16.974;2023-06-01T06:24:50;100187.18;;;19.25;58.91
23635;BME280;11994;51.038;16.974;2023-06-01T06:27:15;100185.72;;;19.43;58.67
23635;BME280;11994;51.038;16.974;2023-06-01T06:29:41;100184.40;;;19.61;58.02
23635;BME280;11994;51.038;16.974;2023-06-01T06:32:07;100180.11;;;19.73;56.85
23635;BME280;11994;51.038;16.974;2023-06-01T06:34:32;100175.92;;;19.83;56.06
23635;BME280;11994;51.038;16.974;2023-06-01T06:37:06;100176.63;;;19.92;55.10
23635;BME280;11994;51.038;16.974;2023-06-01T06:39:32;100179.27;;;20.01;55.07
23635;BME280;11994;51.038;16.974;2023-06-01T06:41:58;100173.86;;;20.14;55.02
23635;BME280;11994;51.038;16.974;2023-06-01T06:44:23;100171.55;;;20.25;54.37
23635;BME280;11994;51.038;16.974;2023-06-01T06:46:48;100173.91;;;20.32;53.88
23635;BME280;11994;51.038;16.974;2023-06-01T06:49:14;100172.81;;;20.41;53.75
23635;BME280;11994;51.038;16.974;2023-06-01T06:51:40;100175.09;;;20.50;53.13
23635;BME280;11994;51.038;16.974;2023-06-01T06:54:06;100174.23;;;20.55;52.48
23635;BME280;11994;51.038;16.974;2023-06-01T06:56:32;100172.02;;;20.58;52.00
23635;BME280;11994;51.038;16.974;2023-06-01T06:58:57;100172.48;;;20.60;51.76
23635;BME280;11994;51.038;16.974;2023-06-01T07:01:22;100172.89;;;20.64;52.10
23635;BME280;11994;51.038;16.974;2023-06-01T07:03:51;100171.89;;;20.69;51.47
23635;BME280;11994;51.038;16.974;2023-06-01T07:06:17;100171.61;;;20.73;51.31
23635;BME280;11994;51.038;16.974;2023-06-01T07:08:42;100168.48;;;20.74;51.52
23635;BME280;11994;51.038;16.974;2023-06-01T07:11:08;100163.47;;;20.80;51.16
23635;BME280;11994;51.038;16.974;2023-06-01T07:13:33;100163.85;;;20.88;51.57
23635;BME280;11994;51.038;16.974;2023-06-01T07:15:59;100164.22;;;20.99;51.24
23635;BME280;11994;51.038;16.974;2023-06-01T07:18:24;100164.67;;;21.05;50.95
23635;BME280;11994;51.038;16.974;2023-06-01T07:20:50;100166.37;;;21.09;50.73
23635;BME280;11994;51.038;16.974;2023-06-01T07:23:15;100164.06;;;21.14;50.23
23635;BME280;11994;51.038;16.974;2023-06-01T07:25:41;100166.06;;;21.16;49.74
23635;BME280;11994;51.038;16.974;2023-06-01T07:28:06;100167.90;;;21.17;50.21
23635;BME280;11994;51.038;16.974;2023-06-01T07:30:34;100160.13;;;21.24;50.44
23635;BME280;11994;51.038;16.974;2023-06-01T07:33:00;100160.28;;;21.32;49.90
23635;BME280;11994;51.038;16.974;2023-06-01T07:35:28;100165.63;;;21.40;49.66
23635;BME280;11994;51.038;16.974;2023-06-01T07:37:53;100166.31;;;21.43;49.59
23635;BME280;11994;51.038;16.974;2023-06-01T07:40:18;100167.25;;;21.50;49.56
23635;BME280;11994;51.038;16.974;2023-06-01T07:42:44;100162.22;;;21.58;49.59
23635;BME280;11994;51.038;16.974;2023-06-01T07:45:10;100159.45;;;21.65;49.78
23635;BME280;11994;51.038;16.974;2023-06-01T07:47:36;100158.73;;;21.75;49.92
23635;BME280;11994;51.038;16.974;2023-06-01T07:50:02;100160.27;;;21.84;49.66
23635;BME280;11994;51.038;16.974;2023-06-01T07:52:27;100161.63;;;21.90;48.75
23635;BME280;11994;51.038;16.974;2023-06-01T07:54:53;100158.80;;;21.94;46.01
23635;BME280;11994;51.038;16.974;2023-06-01T07:57:18;100158.77;;;21.95;45.70
23635;BME280;11994;51.038;16.974;2023-06-01T07:59:44;100160.20;;;21.92;44.71
23635;BME280;11994;51.038;16.974;2023-06-01T08:02:09;100159.64;;;21.93;44.95
23635;BME280;11994;51.038;16.974;2023-06-01T08:04:36;100157.98;;;22.01;44.93
23635;BME280;11994;51.038;16.974;2023-06-01T08:07:03;100153.05;;;22.12;44.72
23635;BME280;11994;51.038;16.974;2023-06-01T08:09:29;100149.52;;;22.21;44.06
23635;BME280;11994;51.038;16.974;2023-06-01T08:11:55;100148.55;;;22.27;43.34
23635;BME280;11994;51.038;16.974;2023-06-01T08:14:21;100150.90;;;22.34;42.69
23635;BME280;11994;51.038;16.974;2023-06-01T08:16:46;100145.27;;;22.40;43.11
23635;BME280;11994;51.038;16.974;2023-06-01T08:19:12;100149.81;;;22.47;43.19
23635;BME280;11994;51.038;16.974;2023-06-01T08:21:38;100145.63;;;22.55;43.06
23635;BME280;11994;51.038;16.974;2023-06-01T08:24:06;100145.60;;;22.60;42.69
23635;BME280;11994;51.038;16.974;2023-06-01T08:26:33;100140.45;;;22.67;42.81
23635;BME280;11994;51.038;16.974;2023-06-01T08:29:00;100142.02;;;22.72;42.54
23635;BME280;11994;51.038;16.974;2023-06-01T08:31:25;100144.07;;;22.78;42.39
23635;BME280;11994;51.038;16.974;2023-06-01T08:33:52;100145.50;;;22.83;41.48
23635;BME280;11994;51.038;16.974;2023-06-01T08:36:18;100144.18;;;22.86;41.26
23635;BME280;11994;51.038;16.974;2023-06-01T08:38:44;100137.76;;;22.86;41.60
23635;BME280;11994;51.038;16.974;2023-06-01T08:41:17;100136.86;;;22.88;41.48
23635;BME280;11994;51.038;16.974;2023-06-01T08:43:52;100139.36;;;23.00;41.65
23635;BME280;11994;51.038;16.974;2023-06-01T08:46:20;100138.93;;;23.10;41.26
23635;BME280;11994;51.038;16.974;2023-06-01T08:48:48;100135.96;;;23.14;40.58
23635;BME280;11994;51.038;16.974;2023-06-01T08:51:18;100130.51;;;23.11;40.61
23635;BME280;11994;51.038;16.974;2023-06-01T08:53:46;100127.30;;;23.13;39.79
23635;BME280;11994;51.038;16.974;2023-06-01T08:56:14;100121.41;;;23.21;39.33
23635;BME280;11994;51.038;16.974;2023-06-01T08:58:40;100122.72;;;23.22;39.88
23635;BME280;11994;51.038;16.974;2023-06-01T09:01:06;100114.67;;;23.22;40.29
23635;BME280;11994;51.038;16.974;2023-06-01T09:03:32;100117.84;;;23.27;40.90
23635;BME280;11994;51.038;16.974;2023-06-01T09:05:57;100113.17;;;23.39;40.79
23635;BME280;11994;51.038;16.974;2023-06-01T09:08:24;100107.40;;;23.51;40.12
23635;BME280;11994;51.038;16.974;2023-06-01T09:10:49;100106.34;;;23.58;38.86
23635;BME280;11994;51.038;16.974;2023-06-01T09:13:33;100109.18;;;23.58;38.51
23635;BME280;11994;51.038;16.974;2023-06-01T09:15:59;100103.05;;;23.54;39.61
23635;BME280;11994;51.038;16.974;2023-06-01T09:18:24;100101.71;;;23.55;39.54
23635;BME280;11994;51.038;16.974;2023-06-01T09:20:50;100100.24;;;23.62;39.62
23635;BME280;11994;51.038;16.974;2023-06-01T09:23:25;100094.49;;;23.69;39.65
23635;BME280;11994;51.038;16.974;2023-06-01T09:26:12;100099.80;;;23.79;39.57
23635;BME280;11994;51.038;16.974;2023-06-01T09:28:55;100098.45;;;23.87;38.71
23635;BME280;11994;51.038;16.974;2023-06-01T09:31:37;100095.45;;;23.84;39.20
23635;BME280;11994;51.038;16.974;2023-06-01T09:34:03;100090.09;;;23.84;38.60
23635;BME280;11994;51.038;16.974;2023-06-01T09:36:28;100099.23;;;23.86;38.49
23635;BME280;11994;51.038;16.974;2023-06-01T09:39:05;100090.83;;;23.86;38.17
23635;BME280;11994;51.038;16.974;2023-06-01T09:41:53;100090.64;;;23.86;38.56
23635;BME280;11994;51.038;16.974;2023-06-01T09:47:05;100078.94;;;24.07;39.14
23635;BME280;11994;51.038;16.974;2023-06-01T09:49:37;100079.46;;;24.08;37.91
23635;BME280;11994;51.038;16.974;2023-06-01T09:54:38;100071.39;;;24.16;39.02
23635;BME280;11994;51.038;16.974;2023-06-01T09:57:05;100074.52;;;24.24;38.66
23635;BME280;11994;51.038;16.974;2023-06-01T09:59:46;100070.49;;;24.23;37.86
23635;BME280;11994;51.038;16.974;2023-06-01T10:02:14;100076.27;;;24.18;37.78
23635;BME280;11994;51.038;16.974;2023-06-01T10:04:42;100071.96;;;24.11;38.43
23635;BME280;11994;51.038;16.974;2023-06-01T10:07:12;100070.94;;;24.09;38.45
23635;BME280;11994;51.038;16.974;2023-06-01T10:09:38;100071.95;;;24.14;38.42
23635;BME280;11994;51.038;16.974;2023-06-01T10:12:07;100070.19;;;24.20;38.75
23635;BME280;11994;51.038;16.974;2023-06-01T10:14:32;100065.46;;;24.25;38.66
23635;BME280;11994;51.038;16.974;2023-06-01T10:16:58;100066.70;;;24.34;38.88
23635;BME280;11994;51.038;16.974;2023-06-01T10:19:25;100062.71;;;24.43;38.31
23635;BME280;11994;51.038;16.974;2023-06-01T10:21:50;100063.88;;;24.46;38.15
23635;BME280;11994;51.038;16.974;2023-06-01T10:24:18;100058.12;;;24.49;38.73
23635;BME280;11994;51.038;16.974;2023-06-01T10:29:23;100057.69;;;24.71;38.62
23635;BME280;11994;51.038;16.974;2023-06-01T10:31:49;100059.45;;;24.77;37.57
23635;BME280;11994;51.038;16.974;2023-06-01T10:34:36;100056.48;;;24.75;37.63
23635;BME280;11994;51.038;16.974;2023-06-01T10:39:29;100053.23;;;24.67;37.84
23635;BME280;11994;51.038;16.974;2023-06-01T10:47:05;100043.63;;;24.61;37.39
23635;BME280;11994;51.038;16.974;2023-06-01T10:55:38;100031.49;;;24.72;38.38
23635;BME280;11994;51.038;16.974;2023-06-01T10:57:45;100033.88;;;24.69;38.11
23635;BME280;11994;51.038;16.974;2023-06-01T11:02:48;100031.62;;;24.74;37.83
23635;BME280;11994;51.038;16.974;2023-06-01T11:07:58;100030.84;;;24.73;36.75
23635;BME280;11994;51.038;16.974;2023-06-01T11:11:00;100029.77;;;24.71;36.83
23635;BME280;11994;51.038;16.974;2023-06-01T11:13:33;100029.36;;;24.74;36.75
23635;BME280;11994;51.038;16.974;2023-06-01T11:21:05;100023.80;;;24.72;36.75
23635;BME280;11994;51.038;16.974;2023-06-01T11:23:31;100018.38;;;24.72;37.48
23635;BME280;11994;51.038;16.974;2023-06-01T11:25:59;100014.37;;;24.80;37.91
23635;BME280;11994;51.038;16.974;2023-06-01T11:28:26;100014.54;;;24.90;37.72
23635;BME280;11994;51.038;16.974;2023-06-01T11:30:53;100013.16;;;24.95;38.14
23635;BME280;11994;51.038;16.974;2023-06-01T11:33:19;100008.29;;;24.98;37.59
23635;BME280;11994;51.038;16.974;2023-06-01T11:35:44;100003.11;;;24.98;37.59
23635;BME280;11994;51.038;16.974;2023-06-01T11:38:11;99997.48;;;25.02;38.02
23635;BME280;11994;51.038;16.974;2023-06-01T11:40:36;100003.11;;;25.10;37.59
23635;BME280;11994;51.038;16.974;2023-06-01T11:43:02;99998.63;;;25.04;37.23
23635;BME280;11994;51.038;16.974;2023-06-01T11:45:27;99995.77;;;24.98;37.37
23635;BME280;11994;51.038;16.974;2023-06-01T11:47:53;99995.83;;;24.99;37.91
23635;BME280;11994;51.038;16.974;2023-06-01T11:50:23;99993.09;;;25.10;38.32
23635;BME280;11994;51.038;16.974;2023-06-01T11:52:51;99986.64;;;25.28;38.58
23635;BME280;11994;51.038;16.974;2023-06-01T11:55:17;99984.23;;;25.39;37.81
23635;BME280;11994;51.038;16.974;2023-06-01T11:57:42;99980.10;;;25.38;37.03
23635;BME280;11994;51.038;16.974;2023-06-01T12:00:11;99975.67;;;25.35;36.75
23635;BME280;11994;51.038;16.974;2023-06-01T12:02:40;99976.42;;;25.38;37.12
23635;BME280;11994;51.038;16.974;2023-06-01T12:05:07;99973.70;;;25.43;37.01
23635;BME280;11994;51.038;16.974;2023-06-01T12:07:57;99968.89;;;25.43;37.30
23635;BME280;11994;51.038;16.974;2023-06-01T12:10:23;99967.95;;;25.47;37.49
23635;BME280;11994;51.038;16.974;2023-06-01T12:12:49;99962.91;;;25.53;37.42
23635;BME280;11994;51.038;16.974;2023-06-01T12:15:16;99960.80;;;25.57;36.81
23635;BME280;11994;51.038;16.974;2023-06-01T12:20:26;99955.17;;;25.67;37.69
23635;BME280;11994;51.038;16.974;2023-06-01T12:22:52;99952.84;;;25.81;37.65
23635;BME280;11994;51.038;16.974;2023-06-01T12:25:21;99951.88;;;25.90;37.30
23635;BME280;11994;51.038;16.974;2023-06-01T12:27:59;99950.95;;;26.00;37.38
23635;BME280;11994;51.038;16.974;2023-06-01T12:30:25;99946.87;;;26.00;36.33
23635;BME280;11994;51.038;16.974;2023-06-01T12:32:51;99940.81;;;25.92;36.38
23635;BME280;11994;51.038;16.974;2023-06-01T12:35:16;99942.35;;;25.92;36.51
23635;BME280;11994;51.038;16.974;2023-06-01T12:37:43;99940.05;;;26.00;35.53
23635;BME280;11994;51.038;16.974;2023-06-01T12:40:09;99937.60;;;25.99;35.79
23635;BME280;11994;51.038;16.974;2023-06-01T12:42:36;99934.85;;;26.05;35.50
23635;BME280;11994;51.038;16.974;2023-06-01T12:45:02;99933.98;;;26.11;34.93
23635;BME280;11994;51.038;16.974;2023-06-01T12:47:38;99929.86;;;26.11;34.77
23635;BME280;11994;51.038;16.974;2023-06-01T12:50:05;99927.35;;;26.09;34.11
23635;BME280;11994;51.038;16.974;2023-06-01T12:52:31;99927.74;;;26.08;34.21
23635;BME280;11994;51.038;16.974;2023-06-01T12:54:56;99923.39;;;26.07;34.12
23635;BME280;11994;51.038;16.974;2023-06-01T12:57:22;99919.65;;;26.05;34.31
23635;BME280;11994;51.038;16.974;2023-06-01T12:59:48;99920.13;;;26.07;33.43
23635;BME280;11994;51.038;16.974;2023-06-01T13:02:14;99917.91;;;26.08;32.96
23635;BME280;11994;51.038;16.974;2023-06-01T13:04:39;99916.81;;;26.08;32.69
23635;BME280;11994;51.038;16.974;2023-06-01T13:07:05;99909.73;;;26.11;33.23
23635;BME280;11994;51.038;16.974;2023-06-01T13:09:31;99904.30;;;26.18;33.83
23635;BME280;11994;51.038;16.974;2023-06-01T13:11:56;99894.34;;;26.21;33.61
23635;BME280;11994;51.038;16.974;2023-06-01T13:14:22;99900.59;;;26.26;33.12
23635;BME280;11994;51.038;16.974;2023-06-01T13:16:47;99896.71;;;26.31;32.93
23635;BME280;11994;51.038;16.974;2023-06-01T13:19:13;99900.16;;;26.35;32.95
23635;BME280;11994;51.038;16.974;2023-06-01T13:21:39;99894.69;;;26.37;32.24
23635;BME280;11994;51.038;16.974;2023-06-01T13:24:04;99895.14;;;26.40;33.24
23635;BME280;11994;51.038;16.974;2023-06-01T13:26:30;99890.70;;;26.40;33.00
23635;BME280;11994;51.038;16.974;2023-06-01T13:28:55;99885.54;;;26.36;32.69
23635;BME280;11994;51.038;16.974;2023-06-01T13:31:21;99884.10;;;26.36;32.18